Time;durP1;ratioP1;P1;durP2;ratioP2;P2;SDS_P1;SDS_P2;PMS_P1;PMS_P2;Temp;Humidity;BMP_temperature;BMP_pressure;BME280_temperature;BME280_humidity;BME280_pressure;Samples;Min_cycle;Max_cycle;Signal;HPM_P1;HPM_P2
2023/02/28 00:00:39;;;;;;;88.78;46.53;;;103.20;2227.20;;;;;;4955898;29;20059;-80
2023/02/28 00:03:05;;;;;;;91.50;46.97;;;103.20;2227.20;;;;;;4937260;29;20089;-80
2023/02/28 00:05:31;;;;;;;76.35;43.47;;;103.20;2227.20;;;;;;4938020;29;20038;-78
2023/02/28 00:07:57;;;;;;;70.45;39.67;;;103.20;2227.20;;;;;;4938342;29;20023;-78
2023/02/28 00:10:26;;;;;;;72.68;38.55;;;103.20;2227.20;;;;;;4938189;29;20027;-74
2023/02/28 00:12:56;;;;;;;68.15;36.95;;;103.20;2227.20;;;;;;4938289;29;20139;-78
2023/02/28 00:15:23;;;;;;;70.80;39.83;;;103.00;2227.20;;;;;;4938297;29;20038;-78
2023/02/28 00:17:49;;;;;;;68.18;37.65;;;103.00;2227.20;;;;;;4955559;29;20110;-77
2023/02/28 00:20:15;;;;;;;66.60;35.65;;;102.90;2227.20;;;;;;4937971;29;20030;-78
2023/02/28 00:22:44;;;;;;;67.50;34.85;;;102.90;2227.20;;;;;;4938350;29;20582;-79
2023/02/28 00:25:12;;;;;;;72.35;39.40;;;102.70;2227.20;;;;;;4938261;29;20031;-78
2023/02/28 00:27:38;;;;;;;67.47;36.10;;;102.70;2227.20;;;;;;4944699;28;20378;-78
2023/02/28 00:30:06;;;;;;;74.05;37.58;;;102.70;2227.20;;;;;;4957089;28;20504;-77
2023/02/28 00:32:32;;;;;;;68.32;35.83;;;102.80;2227.20;;;;;;4965466;28;20035;-76
2023/02/28 00:34:58;;;;;;;65.25;34.88;;;102.90;2227.20;;;;;;4976689;28;20073;-76
2023/02/28 00:37:23;;;;;;;68.82;39.13;;;103.00;2227.20;;;;;;4994872;28;20007;-75
2023/02/28 00:39:49;;;;;;;71.22;41.90;;;103.10;2227.20;;;;;;4992535;28;20027;-75
2023/02/28 00:42:15;;;;;;;62.15;34.70;;;103.10;2227.20;;;;;;4981194;28;20378;-76
2023/02/28 00:44:41;;;;;;;64.22;34.97;;;103.10;2227.20;;;;;;4959718;28;20046;-76
2023/02/28 00:47:07;;;;;;;62.15;33.75;;;103.10;2227.20;;;;;;4975128;28;20366;-78
2023/02/28 00:49:32;;;;;;;62.03;34.10;;;103.20;2227.20;;;;;;4957255;28;20063;-77
2023/02/28 00:51:58;;;;;;;69.90;35.75;;;103.20;2227.20;;;;;;4965812;28;20128;-78
2023/02/28 00:54:24;;;;;;;65.97;35.40;;;103.20;2227.20;;;;;;4976409;28;20061;-76
2023/02/28 00:56:50;;;;;;;64.30;36.00;;;103.30;2227.20;;;;;;4992596;28;20026;-76
2023/02/28 00:59:17;;;;;;;66.38;37.05;;;103.10;2227.20;;;;;;4995014;28;20031;-76
2023/02/28 01:01:45;;;;;;;66.32;37.28;;;102.90;2227.20;;;;;;4979598;28;20032;-79
2023/02/28 01:04:11;;;;;;;71.78;38.45;;;102.90;2227.20;;;;;;4997461;28;20038;-75
2023/02/28 01:06:37;;;;;;;73.93;37.58;;;103.00;2227.20;;;;;;4997108;28;20030;-76
2023/02/28 01:09:05;;;;;;;69.47;34.17;;;103.00;2227.20;;;;;;4979834;28;20066;-77
2023/02/28 01:11:32;;;;;;;67.35;36.33;;;103.00;2227.20;;;;;;4979708;28;20032;-79
2023/02/28 01:13:58;;;;;;;74.32;38.95;;;103.00;2227.20;;;;;;4997228;28;20022;-77
2023/02/28 01:16:24;;;;;;;82.43;40.20;;;103.10;2227.20;;;;;;4979294;28;20454;-76
2023/02/28 01:18:49;;;;;;;83.32;44.03;;;103.00;2227.20;;;;;;4979582;28;20128;-76
2023/02/28 01:21:17;;;;;;;73.18;36.55;;;102.90;2227.20;;;;;;4995839;28;20070;-76
2023/02/28 01:23:43;;;;;;;68.03;36.95;;;102.90;2227.20;;;;;;4978963;28;20118;-78
2023/02/28 01:26:16;;;;;;;72.28;38.75;;;103.00;2227.20;;;;;;4979471;28;20038;-77
2023/02/28 01:28:42;;;;;;;66.30;36.20;;;103.10;2227.20;;;;;;4996589;28;20018;-78
2023/02/28 01:31:09;;;;;;;76.60;36.80;;;103.00;2227.20;;;;;;4995618;28;20074;-77
2023/02/28 01:33:35;;;;;;;67.38;35.72;;;102.90;2227.20;;;;;;4979318;28;20117;-80
2023/02/28 01:36:14;;;;;;;82.05;38.80;;;102.90;2227.20;;;;;;4978991;28;20477;-78
2023/02/28 01:38:40;;;;;;;75.25;39.05;;;102.90;2227.20;;;;;;4979340;28;20023;-77
2023/02/28 01:41:06;;;;;;;96.18;48.97;;;102.90;2227.20;;;;;;4971768;28;20489;-76
2023/02/28 01:43:56;;;;;;;77.95;40.63;;;103.00;2227.20;;;;;;4959517;28;20470;-76
2023/02/28 01:46:22;;;;;;;95.82;47.25;;;103.00;2227.20;;;;;;4960003;28;20118;-79
2023/02/28 01:49:02;;;;;;;95.43;46.58;;;103.10;2227.20;;;;;;4959856;28;20117;-77
2023/02/28 01:51:39;;;;;;;91.55;41.70;;;103.10;2227.20;;;;;;4959249;28;20051;-77
2023/02/28 01:54:16;;;;;;;79.53;40.58;;;103.20;2227.20;;;;;;4977098;28;20027;-76
2023/02/28 01:56:50;;;;;;;73.68;38.60;;;103.20;2227.20;;;;;;4976670;28;20386;-77
2023/02/28 01:59:25;;;;;;;93.60;46.83;;;103.20;2227.20;;;;;;4959774;28;20038;-78
2023/02/28 02:01:51;;;;;;;78.10;39.05;;;103.20;2227.20;;;;;;4986766;28;20096;-76
2023/02/28 02:04:16;;;;;;;80.03;40.83;;;103.20;2227.20;;;;;;4994816;28;20082;-77
2023/02/28 02:06:47;;;;;;;75.65;38.15;;;103.20;2227.20;;;;;;4995817;28;20030;-78
2023/02/28 02:09:13;;;;;;;78.80;38.92;;;103.30;2227.20;;;;;;4978866;28;20022;-77
2023/02/28 02:11:42;;;;;;;81.80;40.17;;;103.30;2227.20;;;;;;4977796;28;20050;-76
2023/02/28 02:14:26;;;;;;;100.47;54.72;;;103.30;2227.20;;;;;;4996184;28;20035;-76
2023/02/28 02:17:06;;;;;;;91.93;47.92;;;128.10;2252.80;;;;;;4978586;28;20033;-75
2023/02/28 02:20:06;;;;;;;87.63;44.35;;;128.00;2252.80;;;;;;4978486;28;20026;-76
2023/02/28 02:22:54;;;;;;;83.32;42.15;;;128.10;2252.80;;;;;;4995661;28;20079;-78
2023/02/28 02:25:31;;;;;;;80.13;40.65;;;103.20;2227.20;;;;;;4995642;28;20084;-76
2023/02/28 02:28:12;;;;;;;86.97;43.42;;;103.20;2227.20;;;;;;4978536;28;20080;-76
2023/02/28 02:30:56;;;;;;;88.30;43.80;;;103.30;2227.20;;;;;;4978479;28;20382;-76
2023/02/28 02:34:18;;;;;;;81.40;40.65;;;128.00;2252.80;;;;;;4995274;28;20034;-80
2023/02/28 02:37:00;;;;;;;79.57;38.25;;;128.00;2252.80;;;;;;4898519;29;20032;-76
2023/02/28 02:39:42;;;;;;;89.50;40.47;;;103.30;2227.20;;;;;;4897579;29;20614;-79
2023/02/28 02:42:22;;;;;;;70.82;37.78;;;103.30;2227.20;;;;;;4956035;28;20109;-75
2023/02/28 02:44:59;;;;;;;82.70;41.08;;;103.30;2227.20;;;;;;4976130;28;20043;-74
2023/02/28 02:47:29;;;;;;;85.45;42.63;;;103.30;2227.20;;;;;;4975688;28;20113;-78
2023/02/28 02:49:58;;;;;;;82.28;42.92;;;128.00;2252.80;;;;;;4978001;28;20390;-78
2023/02/28 02:52:35;;;;;;;67.80;36.80;;;103.30;2227.20;;;;;;4977398;28;20054;-77
2023/02/28 02:55:03;;;;;;;77.53;38.28;;;103.20;2227.20;;;;;;4977633;28;20121;-77
2023/02/28 02:57:59;;;;;;;77.05;40.25;;;103.20;2227.20;;;;;;4977820;28;20026;-78
2023/02/28 03:00:32;;;;;;;67.50;34.13;;;103.20;2227.20;;;;;;4975658;28;20530;-76
2023/02/28 03:03:00;;;;;;;73.47;37.78;;;103.10;2227.20;;;;;;4977721;28;20038;-77
2023/02/28 03:05:35;;;;;;;73.38;35.65;;;103.10;2227.20;;;;;;4977752;28;20038;-76
2023/02/28 03:08:05;;;;;;;69.28;34.65;;;103.10;2227.20;;;;;;4977478;28;20053;-76
2023/02/28 03:10:37;;;;;;;73.55;36.38;;;103.20;2227.20;;;;;;4977538;28;20053;-77
2023/02/28 03:13:26;;;;;;;71.00;36.57;;;103.10;2227.20;;;;;;4977543;28;20068;-76
2023/02/28 03:16:10;;;;;;;70.57;35.00;;;103.20;2227.20;;;;;;4977173;28;20060;-78
2023/02/28 03:18:39;;;;;;;82.45;38.33;;;128.00;2252.80;;;;;;4977227;28;20026;-75
2023/02/28 03:21:23;;;;;;;79.57;38.78;;;128.10;2252.80;;;;;;4977161;28;20377;-76
2023/02/28 03:24:15;;;;;;;72.25;35.58;;;128.20;2252.80;;;;;;4977440;28;20433;-76
2023/02/28 03:26:47;;;;;;;75.55;36.33;;;128.00;2252.80;;;;;;4977562;28;20116;-77
2023/02/28 03:29:28;;;;;;;75.63;36.15;;;103.30;2227.20;;;;;;4977126;28;20061;-75
2023/02/28 03:32:00;;;;;;;66.25;34.05;;;103.10;2227.20;;;;;;4977228;28;20449;-76
2023/02/28 03:34:34;;;;;;;66.65;34.63;;;103.00;2227.20;;;;;;4977252;28;20037;-76
2023/02/28 03:37:10;;;;;;;73.75;34.75;;;103.00;2227.20;;;;;;4977339;28;20124;-75
2023/02/28 03:39:51;;;;;;;71.82;33.83;;;103.00;2227.20;;;;;;4977264;28;20076;-79
2023/02/28 03:42:23;;;;;;;65.85;35.33;;;103.00;2227.20;;;;;;4976770;28;20035;-78
2023/02/28 03:44:59;;;;;;;73.90;35.65;;;102.90;2227.20;;;;;;4977286;28;20121;-80
2023/02/28 03:47:52;;;;;;;70.35;37.63;;;102.90;2227.20;;;;;;4977273;28;20385;-77
2023/02/28 03:50:34;;;;;;;69.45;34.53;;;103.00;2227.20;;;;;;4951176;28;20125;-77
2023/02/28 03:53:09;;;;;;;67.13;35.77;;;103.10;2227.20;;;;;;4962363;28;20054;-76
2023/02/28 03:55:40;;;;;;;63.10;35.13;;;103.20;2227.20;;;;;;4956333;28;20027;-77
2023/02/28 03:58:21;;;;;;;68.47;35.50;;;103.20;2227.20;;;;;;4956811;28;20089;-77
2023/02/28 04:00:53;;;;;;;67.40;34.00;;;103.20;2227.20;;;;;;4954427;29;20028;-77
2023/02/28 04:03:19;;;;;;;69.40;36.47;;;103.20;2227.20;;;;;;4943720;28;20079;-77
2023/02/28 04:05:53;;;;;;;74.75;37.63;;;103.20;2227.20;;;;;;4957486;28;20058;-76
2023/02/28 04:08:19;;;;;;;64.80;36.22;;;103.20;2227.20;;;;;;4957602;28;20042;-76
2023/02/28 04:10:57;;;;;;;65.05;36.00;;;103.20;2227.20;;;;;;4957234;28;20031;-79
2023/02/28 04:13:23;;;;;;;72.65;34.63;;;103.10;2227.20;;;;;;4975068;28;20536;-78
2023/02/28 04:15:49;;;;;;;74.63;37.38;;;103.10;2227.20;;;;;;4957524;28;20031;-76
2023/02/28 04:18:15;;;;;;;73.97;36.63;;;103.10;2227.20;;;;;;4956768;28;20038;-75
2023/02/28 04:20:40;;;;;;;69.85;36.60;;;103.10;2227.20;;;;;;4957388;28;20027;-76
2023/02/28 04:23:06;;;;;;;70.22;37.25;;;103.10;2227.20;;;;;;4957420;28;20039;-76
2023/02/28 04:25:32;;;;;;;69.38;36.80;;;103.20;2227.20;;;;;;4956858;28;20050;-77
2023/02/28 04:27:57;;;;;;;88.53;46.35;;;103.30;2227.20;;;;;;4973367;28;20030;-79
2023/02/28 04:30:23;;;;;;;83.53;46.53;;;128.00;2252.80;;;;;;4957570;28;20026;-76
2023/02/28 04:32:49;;;;;;;83.90;46.10;;;128.10;2252.80;;;;;;4974319;28;20069;-77
2023/02/28 04:35:15;;;;;;;70.50;37.38;;;128.00;2252.80;;;;;;4977647;28;20027;-75
2023/02/28 04:37:41;;;;;;;61.17;34.05;;;103.10;2227.20;;;;;;4961055;28;20030;-76
2023/02/28 04:40:07;;;;;;;73.88;36.40;;;103.10;2227.20;;;;;;4978303;28;20053;-78
2023/02/28 04:42:35;;;;;;;72.30;37.47;;;103.10;2227.20;;;;;;4961161;28;20038;-77
2023/02/28 04:45:04;;;;;;;69.97;37.00;;;103.10;2227.20;;;;;;4976620;28;20035;-79
2023/02/28 04:47:30;;;;;;;72.97;39.75;;;103.10;2227.20;;;;;;4978217;28;20111;-77
2023/02/28 04:49:56;;;;;;;73.35;43.38;;;103.00;2227.20;;;;;;4976989;28;20054;-77
2023/02/28 04:52:22;;;;;;;75.55;48.08;;;103.00;2227.20;;;;;;4960051;28;20498;-77
2023/02/28 04:54:48;;;;;;;72.20;36.47;;;103.00;2227.20;;;;;;4960846;28;20027;-76
2023/02/28 04:57:14;;;;;;;75.72;38.42;;;103.10;2227.20;;;;;;4977915;28;20088;-76
2023/02/28 04:59:39;;;;;;;80.95;42.50;;;103.00;2227.20;;;;;;4960498;28;20125;-76
2023/02/28 05:02:06;;;;;;;74.65;40.67;;;103.10;2227.20;;;;;;4977683;28;20027;-76
2023/02/28 05:04:33;;;;;;;72.20;37.20;;;103.20;2227.20;;;;;;4977768;28;20038;-76
2023/02/28 05:07:01;;;;;;;72.32;38.58;;;103.20;2227.20;;;;;;4960009;28;20023;-75
2023/02/28 05:09:27;;;;;;;79.10;39.35;;;103.20;2227.20;;;;;;4960457;28;20030;-77
2023/02/28 05:11:53;;;;;;;75.40;38.30;;;103.20;2227.20;;;;;;4976606;28;20122;-78
2023/02/28 05:14:18;;;;;;;71.13;35.80;;;103.10;2227.20;;;;;;4960345;28;20189;-80
2023/02/28 05:16:44;;;;;;;78.13;38.28;;;102.90;2227.20;;;;;;4977792;28;20080;-76
2023/02/28 05:19:10;;;;;;;76.65;37.78;;;102.80;2227.20;;;;;;4976486;28;20077;-75
2023/02/28 05:21:41;;;;;;;81.32;38.35;;;102.90;2227.20;;;;;;4960043;28;20117;-78
2023/02/28 05:24:10;;;;;;;75.82;37.42;;;103.00;2227.20;;;;;;4977744;28;20086;-78
2023/02/28 05:26:39;;;;;;;73.53;37.05;;;102.90;2227.20;;;;;;4960325;28;20097;-77
2023/02/28 05:29:05;;;;;;;73.30;35.08;;;102.90;2227.20;;;;;;4956762;29;20027;-76
2023/02/28 05:31:30;;;;;;;79.32;37.53;;;103.00;2227.20;;;;;;4960295;28;20038;-78
2023/02/28 05:33:56;;;;;;;85.20;41.03;;;103.10;2227.20;;;;;;4975903;28;20077;-77
2023/02/28 05:36:23;;;;;;;85.63;42.72;;;103.00;2227.20;;;;;;4959995;28;20122;-78
2023/02/28 05:38:49;;;;;;;86.15;43.70;;;103.00;2227.20;;;;;;4960108;28;20038;-78
2023/02/28 05:41:16;;;;;;;88.38;43.75;;;103.10;2227.20;;;;;;4959520;28;20038;-75
2023/02/28 05:43:41;;;;;;;87.47;47.30;;;103.00;2227.20;;;;;;4959788;28;20090;-77
2023/02/28 05:46:09;;;;;;;89.18;46.92;;;103.10;2227.20;;;;;;4958711;28;20030;-77
2023/02/28 05:48:36;;;;;;;103.68;63.22;;;103.20;2227.20;;;;;;4959598;28;20056;-76
2023/02/28 05:51:03;;;;;;;89.45;46.60;;;103.20;2227.20;;;;;;4977119;28;20122;-77
2023/02/28 05:53:30;;;;;;;93.75;50.22;;;103.30;2227.20;;;;;;4992569;28;20061;-78
2023/02/28 05:55:55;;;;;;;96.03;53.53;;;103.20;2227.20;;;;;;4978215;28;20034;-75
2023/02/28 05:58:21;;;;;;;96.45;49.08;;;103.20;2227.20;;;;;;4978373;28;20030;-77
2023/02/28 06:00:48;;;;;;;96.45;53.75;;;103.20;2227.20;;;;;;4978782;28;20023;-80
2023/02/28 06:03:13;;;;;;;126.53;71.82;;;103.20;2227.20;;;;;;4978503;28;20066;-77
2023/02/28 06:05:39;;;;;;;254.57;143.35;;;103.30;2227.20;;;;;;4978909;28;20065;-78
2023/02/28 06:08:08;;;;;;;230.40;128.88;;;103.30;2227.20;;;;;;4978805;28;20130;-75
2023/02/28 06:10:35;;;;;;;134.00;73.00;;;103.30;2227.20;;;;;;4978353;28;20033;-77
2023/02/28 06:13:02;;;;;;;120.38;66.35;;;128.00;2252.80;;;;;;4978775;28;20030;-76
2023/02/28 06:15:28;;;;;;;99.50;54.97;;;128.10;2252.80;;;;;;4978653;28;20027;-77
2023/02/28 06:17:56;;;;;;;90.38;48.33;;;128.40;2252.80;;;;;;4978369;28;20022;-76
2023/02/28 06:20:23;;;;;;;170.20;97.25;;;128.10;2252.80;;;;;;4996367;28;20054;-78
2023/02/28 06:22:50;;;;;;;121.15;63.22;;;128.10;2252.80;;;;;;4978168;28;20552;-74
2023/02/28 06:25:16;;;;;;;99.63;51.53;;;128.20;2252.80;;;;;;4995921;28;20377;-75
2023/02/28 06:27:41;;;;;;;99.20;52.00;;;128.20;2252.80;;;;;;4995708;28;20030;-78
2023/02/28 06:30:08;;;;;;;96.75;51.53;;;128.30;2252.80;;;;;;4995492;28;20038;-77
2023/02/28 06:32:34;;;;;;;105.40;55.95;;;128.30;2252.80;;;;;;4978201;28;20033;-77
2023/02/28 06:34:59;;;;;;;113.07;64.00;;;128.30;2252.80;;;;;;4995824;28;20027;-77
2023/02/28 06:37:28;;;;;;;119.55;75.95;;;128.40;2252.80;;;;;;4978000;28;20034;-77
2023/02/28 06:39:57;;;;;;;98.20;54.42;;;128.20;2252.80;;;;;;4978253;28;20109;-77
2023/02/28 06:42:28;;;;;;;96.38;51.83;;;128.20;2252.80;;;;;;4978165;28;20466;-76
2023/02/28 06:44:57;;;;;;;86.43;46.63;;;128.30;2252.80;;;;;;4977818;28;20030;-78
2023/02/28 06:47:23;;;;;;;97.55;50.72;;;128.30;2252.80;;;;;;4995569;28;20034;-77
2023/02/28 06:49:50;;;;;;;100.05;50.70;;;128.40;2252.80;;;;;;4978051;28;20033;-75
2023/02/28 06:52:15;;;;;;;98.75;50.15;;;128.40;2252.80;;;;;;4977252;28;20064;-79
2023/02/28 06:54:41;;;;;;;91.75;50.28;;;128.40;2252.80;;;;;;4995492;28;20490;-77
2023/02/28 06:57:07;;;;;;;96.55;50.97;;;128.30;2252.80;;;;;;4977750;28;20026;-77
2023/02/28 06:59:33;;;;;;;99.97;52.55;;;128.10;2252.80;;;;;;4977470;28;20030;-76
2023/02/28 07:01:58;;;;;;;106.63;54.33;;;128.20;2252.80;;;;;;4995134;28;20105;-77
2023/02/28 07:04:24;;;;;;;105.13;53.25;;;128.10;2252.80;;;;;;4978373;28;20436;-76
2023/02/28 07:06:50;;;;;;;90.60;47.85;;;128.10;2252.80;;;;;;4995603;28;20034;-77
2023/02/28 07:09:16;;;;;;;96.60;48.00;;;128.10;2252.80;;;;;;4977817;28;20114;-78
2023/02/28 07:11:42;;;;;;;95.45;48.92;;;128.00;2252.80;;;;;;4995137;28;20030;-78
2023/02/28 07:14:08;;;;;;;112.72;57.55;;;103.30;2227.20;;;;;;4977907;28;20377;-78
2023/02/28 07:16:35;;;;;;;105.55;53.40;;;103.30;2227.20;;;;;;4978317;28;20026;-77
2023/02/28 07:19:00;;;;;;;104.13;54.13;;;128.00;2252.80;;;;;;4996187;28;20042;-77
2023/02/28 07:21:26;;;;;;;106.68;52.60;;;128.20;2252.80;;;;;;4995911;28;20470;-76
2023/02/28 07:23:52;;;;;;;98.95;50.42;;;128.30;2252.80;;;;;;4977408;28;20479;-78
2023/02/28 07:26:19;;;;;;;100.88;52.03;;;128.40;2252.80;;;;;;4977003;28;20036;-78
2023/02/28 07:28:46;;;;;;;109.15;54.97;;;128.40;2252.80;;;;;;4994875;28;20065;-77
2023/02/28 07:31:13;;;;;;;130.48;65.80;;;128.40;2252.80;;;;;;4994837;28;20030;-76
2023/02/28 07:33:39;;;;;;;134.07;73.75;;;128.40;2252.80;;;;;;4976973;28;20026;-76
2023/02/28 07:36:09;;;;;;;107.68;58.13;;;128.20;2252.80;;;;;;4977399;28;20027;-76
2023/02/28 07:38:36;;;;;;;102.90;55.50;;;128.30;2252.80;;;;;;4977248;28;20030;-77
2023/02/28 07:41:05;;;;;;;113.45;58.25;;;128.30;2252.80;;;;;;4976864;28;20037;-78
2023/02/28 07:43:32;;;;;;;139.75;82.80;;;128.30;2252.80;;;;;;4976905;28;20034;-77
2023/02/28 07:46:03;;;;;;;102.13;56.08;;;128.20;2252.80;;;;;;4976997;28;20512;-77
2023/02/28 07:48:29;;;;;;;110.63;62.03;;;128.20;2252.80;;;;;;4976746;28;20481;-77
2023/02/28 07:50:58;;;;;;;102.60;54.72;;;128.30;2252.80;;;;;;4993895;28;20030;-76
2023/02/28 07:53:25;;;;;;;104.97;52.30;;;128.40;2252.80;;;;;;4976724;28;20107;-76
2023/02/28 07:55:50;;;;;;;113.65;57.95;;;128.30;2252.80;;;;;;4976661;28;20050;-77
2023/02/28 07:58:16;;;;;;;120.20;61.88;;;128.30;2252.80;;;;;;4976658;28;20457;-76
2023/02/28 08:00:42;;;;;;;120.30;61.13;;;128.40;2252.80;;;;;;4986579;28;20150;-77
2023/02/28 08:03:12;;;;;;;128.15;60.22;;;128.50;2252.80;;;;;;4976880;28;20041;-77
2023/02/28 08:05:41;;;;;;;107.53;55.70;;;128.50;2252.80;;;;;;4994383;28;20019;-79
2023/02/28 08:08:08;;;;;;;123.10;58.00;;;128.50;2252.80;;;;;;4976080;28;20026;-78
2023/02/28 08:10:34;;;;;;;111.72;54.08;;;128.60;2252.80;;;;;;4976396;28;20030;-78
2023/02/28 08:13:00;;;;;;;105.65;51.28;;;;;;;;;;4976922;28;20122;-79
2023/02/28 08:15:26;;;;;;;120.20;54.15;;;;;;;;;;4976593;28;20023;-77
2023/02/28 08:17:52;;;;;;;131.07;63.22;;;;;;;;;;4994064;28;20026;-78
2023/02/28 08:20:19;;;;;;;126.45;59.78;;;;;;;;;;4977395;28;20132;-77
2023/02/28 08:22:45;;;;;;;196.90;103.65;;;;;;;;;;4976512;28;20022;-78
2023/02/28 08:25:11;;;;;;;131.68;69.13;;;;;;;;;;4976680;28;20023;-76
2023/02/28 08:27:37;;;;;;;125.30;60.75;;;;;;;;;;4976589;28;20026;-76
2023/02/28 08:30:04;;;;;;;109.57;55.97;;;128.70;2252.80;;;;;;4976369;28;20030;-76
2023/02/28 08:32:29;;;;;;;109.65;53.17;;;128.50;2252.80;;;;;;4976539;28;20061;-78
2023/02/28 08:34:55;;;;;;;123.07;57.80;;;128.50;2252.80;;;;;;4976662;28;20034;-76
2023/02/28 08:37:21;;;;;;;152.60;79.45;;;128.40;2252.80;;;;;;4976363;28;20033;-77
2023/02/28 08:39:46;;;;;;;165.30;88.32;;;128.40;2252.80;;;;;;4976353;28;20029;-77
2023/02/28 08:42:12;;;;;;;157.50;81.28;;;128.50;2252.80;;;;;;4976525;28;20461;-76
2023/02/28 08:44:38;;;;;;;167.07;85.80;;;128.60;2252.80;;;;;;4993631;28;20430;-76
2023/02/28 08:47:04;;;;;;;162.98;78.82;;;128.50;2252.80;;;;;;4993837;28;20033;-77
2023/02/28 08:49:29;;;;;;;137.93;67.88;;;128.40;2252.80;;;;;;4997809;28;20454;-74
2023/02/28 08:51:56;;;;;;;152.63;72.88;;;128.40;2252.80;;;;;;5014832;28;20121;-75
2023/02/28 08:54:23;;;;;;;140.10;70.57;;;128.40;2252.80;;;;;;4995579;28;20045;-76
2023/02/28 08:56:49;;;;;;;129.02;65.07;;;128.10;2252.80;;;;;;4976605;28;20378;-76
2023/02/28 08:59:15;;;;;;;135.60;68.88;;;128.20;2252.80;;;;;;4994456;28;20026;-79
2023/02/28 09:01:41;;;;;;;142.27;67.05;;;128.40;2252.80;;;;;;4976283;28;20033;-78
2023/02/28 09:04:09;;;;;;;126.60;67.18;;;128.40;2252.80;;;;;;4997645;28;20066;-77
2023/02/28 09:06:35;;;;;;;142.13;74.60;;;128.50;2252.80;;;;;;4993846;28;20526;-78
2023/02/28 09:09:01;;;;;;;116.70;60.75;;;128.60;2252.80;;;;;;4976508;28;20058;-76
2023/02/28 09:11:27;;;;;;;137.68;66.00;;;128.70;2252.80;;;;;;4976167;28;20512;-77
2023/02/28 09:13:55;;;;;;;145.02;73.80;;;128.80;2252.80;;;;;;4976252;28;20094;-75
2023/02/28 09:16:21;;;;;;;132.95;63.95;;;128.80;2252.80;;;;;;4976210;28;20117;-77
2023/02/28 09:18:47;;;;;;;124.25;60.90;;;128.70;2252.80;;;;;;4976022;28;20169;-78
2023/02/28 09:21:15;;;;;;;136.65;67.55;;;128.80;2252.80;;;;;;4979032;28;20030;-76
2023/02/28 09:23:43;;;;;;;147.15;70.43;;;153.90;2252.80;;;;;;4997056;28;20037;-76
2023/02/28 09:26:17;;;;;;;191.00;100.57;;;153.80;2252.80;;;;;;4979063;28;20033;-75
2023/02/28 09:28:43;;;;;;;168.13;86.78;;;153.80;2252.80;;;;;;4979544;28;20037;-75
2023/02/28 09:31:16;;;;;;;155.73;82.78;;;153.70;2252.80;;;;;;4979575;28;20489;-74
2023/02/28 09:33:42;;;;;;;;;;;153.70;2252.80;;;;;;4979369;28;20088;-74
2023/02/28 09:36:08;;;;;;;145.32;80.55;;;153.60;2252.80;;;;;;4996974;28;19906;-75
2023/02/28 09:38:34;;;;;;;134.63;66.05;;;153.60;2252.80;;;;;;4979181;28;20027;-76
2023/02/28 09:41:11;;;;;;;136.05;75.18;;;153.60;2252.80;;;;;;4979054;28;20049;-77
2023/02/28 09:43:43;;;;;;;131.88;67.60;;;153.70;2252.80;;;;;;4996573;28;20095;-74
2023/02/28 09:46:39;;;;;;;143.07;72.77;;;153.70;2252.80;;;;;;4978952;28;20034;-74
2023/02/28 09:49:10;;;;;;;150.02;72.70;;;153.80;2252.80;;;;;;4957698;28;20359;-75
2023/02/28 09:51:51;;;;;;;142.98;71.53;;;153.90;2252.80;;;;;;4976722;28;20066;-78
2023/02/28 09:54:21;;;;;;;145.30;76.90;;;153.90;2252.80;;;;;;4971493;28;20493;-77
2023/02/28 09:57:25;;;;;;;142.00;70.18;;;154.00;2252.80;;;;;;4975584;28;20122;-79
2023/02/28 10:00:07;;;;;;;134.15;68.05;;;153.90;2252.80;;;;;;4966138;28;20542;-76
2023/02/28 10:02:35;;;;;;;130.73;68.93;;;154.00;2252.80;;;;;;4971587;28;20484;-77
2023/02/28 10:05:17;;;;;;;165.93;87.15;;;153.90;2252.80;;;;;;4978911;28;20089;-76
2023/02/28 10:08:14;;;;;;;154.20;85.32;;;153.90;2252.80;;;;;;4978597;28;20073;-77
2023/02/28 10:10:43;;;;;;;148.05;79.00;;;153.90;2252.80;;;;;;4996091;28;20033;-76
2023/02/28 10:13:26;;;;;;;137.80;74.97;;;153.80;2252.80;;;;;;4978939;28;20430;-77
2023/02/28 10:15:55;;;;;;;;;;;153.90;2252.80;;;;;;4978880;28;20389;-79
2023/02/28 10:18:50;;;;;;;127.45;64.18;;;153.90;2252.80;;;;;;4978577;28;19928;-77
2023/02/28 10:21:27;;;;;;;122.32;65.75;;;154.10;2252.80;;;;;;4977282;28;20132;-78
2023/02/28 10:24:03;;;;;;;140.55;77.50;;;154.30;2252.80;;;;;;4978677;28;20034;-74
2023/02/28 10:26:31;;;;;;;120.57;63.78;;;154.00;2252.80;;;;;;4978395;28;20026;-74
2023/02/28 10:28:57;;;;;;;153.35;76.70;;;153.90;2252.80;;;;;;4995540;28;20050;-77
2023/02/28 10:31:22;;;;;;;146.82;76.57;;;154.00;2252.80;;;;;;4995250;28;20065;-76
2023/02/28 10:33:49;;;;;;;127.00;70.95;;;154.10;2252.80;;;;;;4978362;28;20034;-75
2023/02/28 10:36:18;;;;;;;140.48;73.93;;;154.10;2252.80;;;;;;4995670;28;20108;-76
2023/02/28 10:38:45;;;;;;;115.82;63.25;;;154.10;2252.80;;;;;;4978181;28;20146;-76
2023/02/28 10:41:15;;;;;;;133.30;67.53;;;154.20;2252.80;;;;;;4978095;28;20054;-76
2023/02/28 10:43:43;;;;;;;144.95;72.53;;;154.20;2252.80;;;;;;4994572;28;20465;-76
2023/02/28 10:46:09;;;;;;;129.13;64.10;;;154.30;2252.80;;;;;;4995203;28;20042;-77
2023/02/28 10:48:56;;;;;;;122.07;63.67;;;154.30;2252.80;;;;;;4995440;28;20085;-76
2023/02/28 10:51:23;;;;;;;110.85;57.58;;;154.40;2252.80;;;;;;4995632;28;20054;-81
2023/02/28 10:53:50;;;;;;;112.50;56.47;;;179.20;2252.80;;;;;;4993702;28;20031;-76
2023/02/28 10:56:18;;;;;;;119.85;60.40;;;179.30;2252.80;;;;;;4977352;28;20029;-77
2023/02/28 10:58:52;;;;;;;137.10;61.75;;;179.30;2252.80;;;;;;4995163;28;20036;-76
2023/02/28 11:01:24;;;;;;;119.50;60.13;;;179.30;2252.80;;;;;;4977632;28;20026;-76
2023/02/28 11:03:52;;;;;;;116.47;59.70;;;179.20;2252.80;;;;;;4994810;28;20031;-77
2023/02/28 11:06:24;;;;;;;111.43;57.03;;;179.20;2252.80;;;;;;4993673;28;20045;-76
2023/02/28 11:08:53;;;;;;;117.88;59.60;;;179.30;2252.80;;;;;;4977267;28;20027;-75
2023/02/28 11:11:21;;;;;;;107.65;61.05;;;179.30;2252.80;;;;;;4976700;28;20027;-77
2023/02/28 11:13:51;;;;;;;120.65;65.65;;;179.20;2252.80;;;;;;4977309;28;20034;-75
2023/02/28 11:16:17;;;;;;;131.50;69.93;;;179.20;2252.80;;;;;;4995363;28;20536;-78
2023/02/28 11:18:55;;;;;;;113.90;60.92;;;179.20;2252.80;;;;;;4993576;28;20105;-77
2023/02/28 11:21:40;;;;;;;125.43;63.03;;;179.40;2252.80;;;;;;4977329;28;20030;-77
2023/02/28 11:24:28;;;;;;;121.43;64.28;;;179.20;2252.80;;;;;;4994568;28;20405;-79
2023/02/28 11:26:54;;;;;;;117.93;62.42;;;179.30;2252.80;;;;;;4976959;28;20022;-76
2023/02/28 11:29:31;;;;;;;108.55;57.63;;;179.40;2252.80;;;;;;4993516;28;20031;-75
2023/02/28 11:32:12;;;;;;;129.75;62.25;;;179.40;2252.80;;;;;;4976982;28;20374;-77
2023/02/28 11:34:39;;;;;;;117.28;62.78;;;179.40;2252.80;;;;;;4977455;28;20054;-75
2023/02/28 11:37:10;;;;;;;108.32;58.47;;;179.40;2252.80;;;;;;4977125;28;20034;-78
2023/02/28 11:39:37;;;;;;;104.35;54.20;;;179.20;2252.80;;;;;;4976617;28;20026;-76
2023/02/28 11:42:30;;;;;;;110.85;60.45;;;179.20;2252.80;;;;;;4977080;28;20030;-75
2023/02/28 11:45:17;;;;;;;;;;;179.20;2252.80;;;;;;4976608;28;20410;-76
2023/02/28 11:47:58;;;;;;;107.32;57.05;;;179.20;2252.80;;;;;;4947857;28;19917;-78
2023/02/28 11:51:02;;;;;;;122.03;65.05;;;179.40;2252.80;;;;;;4976934;28;20413;-77
2023/02/28 11:54:01;;;;;;;106.25;55.08;;;179.50;2252.80;;;;;;4980488;28;20050;-78
2023/02/28 11:57:19;;;;;;;114.00;59.53;;;179.50;2252.80;;;;;;4976975;28;20126;-78
2023/02/28 12:00:00;;;;;;;121.57;66.90;;;179.30;2252.80;;;;;;4928076;28;20124;-77
2023/02/28 12:02:35;;;;;;;124.25;68.57;;;179.40;2252.80;;;;;;4974943;28;20467;-77
2023/02/28 12:05:10;;;;;;;118.88;63.17;;;179.30;2252.80;;;;;;4975407;28;20030;-77
2023/02/28 12:07:54;;;;;;;143.75;80.90;;;179.40;2252.80;;;;;;4976465;28;20038;-78
2023/02/28 12:10:51;;;;;;;131.00;75.55;;;179.40;2252.80;;;;;;4994332;28;20033;-77
2023/02/28 12:13:20;;;;;;;124.65;65.60;;;179.50;2252.80;;;;;;4988657;28;20042;-77
2023/02/28 12:16:20;;;;;;;132.43;76.07;;;179.50;2252.80;;;;;;4976754;28;20101;-77